createdAt,value
2023-02-08T00:00:34.207Z,92.5
2023-02-08T00:01:34.113Z,92.7
2023-02-08T00:02:33.789Z,93.5
2023-02-08T00:03:33.618Z,96
2023-02-08T00:04:34.417Z,96.8
2023-02-08T00:05:33.969Z,94.7
2023-02-08T00:06:34.314Z,95.5
2023-02-08T00:07:34.281Z,94.8
2023-02-08T00:08:34.199Z,94.6
2023-02-08T00:09:33.632Z,91.6
2023-02-08T00:10:33.616Z,91.2
2023-02-08T00:11:34.164Z,90
2023-02-08T00:12:34.459Z,92.1
2023-02-08T00:13:33.883Z,89.9
2023-02-08T00:14:34.176Z,90.4
2023-02-08T00:15:34.012Z,88.8
2023-02-08T00:16:34.747Z,89.8
2023-02-08T00:17:34.451Z,90.8
2023-02-08T00:18:34.277Z,89.7
2023-02-08T00:19:34.151Z,92
2023-02-08T00:20:32.948Z,92.6
2023-02-08T00:21:33.739Z,90.9
2023-02-08T00:22:34.243Z,92.1
2023-02-08T00:23:33.859Z,90.7
2023-02-08T00:24:34.076Z,91.8
2023-02-08T00:25:34.089Z,91.3
2023-02-08T00:26:33.654Z,91.6
2023-02-08T00:27:33.776Z,93.4
2023-02-08T00:28:34.549Z,94.4
2023-02-08T00:29:34.442Z,94.6
2023-02-08T00:30:34.105Z,95.6
2023-02-08T00:31:34.348Z,96.4
2023-02-08T00:32:34.405Z,97.1
2023-02-08T00:33:34.101Z,94.8
2023-02-08T00:34:35.150Z,95
2023-02-08T00:35:34.266Z,96.7
2023-02-08T00:36:33.725Z,97
2023-02-08T00:37:34.178Z,96.1
2023-02-08T00:38:34.055Z,96
2023-02-08T00:39:34.187Z,94.7
2023-02-08T00:40:35.481Z,95.2
2023-02-08T00:42:34.388Z,94.1
2023-02-08T00:43:34.913Z,93.8
2023-02-08T00:44:34.892Z,93.2
2023-02-08T00:45:34.502Z,93.7
2023-02-08T00:46:34.550Z,93.6
2023-02-08T00:47:34.325Z,92.7
2023-02-08T00:48:33.797Z,93.2
2023-02-08T00:49:34.114Z,91.8
2023-02-08T00:50:34.341Z,91.5
2023-02-08T00:51:34.843Z,91.8
2023-02-08T00:52:33.725Z,92.9
2023-02-08T00:53:33.733Z,93.9
2023-02-08T00:54:34.360Z,96
2023-02-08T00:55:34.245Z,95.5
2023-02-08T00:56:34.464Z,95.4
2023-02-08T00:57:33.990Z,94.4
2023-02-08T00:58:34.229Z,92.9
2023-02-08T00:59:34.218Z,92.6
2023-02-08T01:00:33.998Z,94.7
2023-02-08T01:01:35.078Z,95.7
2023-02-08T01:02:35.622Z,96.8
2023-02-08T01:03:33.674Z,98.1
2023-02-08T01:04:33.641Z,98.5
2023-02-08T01:05:34.766Z,96.9
2023-02-08T01:06:34.483Z,94.8
2023-02-08T01:07:34.216Z,94.7
2023-02-08T01:08:34.353Z,95.5
2023-02-08T01:09:34.352Z,95.4
2023-02-08T01:10:33.731Z,94.7
2023-02-08T01:11:34.900Z,93.8
2023-02-08T01:12:33.950Z,94.7
2023-02-08T01:13:33.854Z,94.1
2023-02-08T01:14:34.275Z,95.2
2023-02-08T01:15:33.971Z,96.8
2023-02-08T01:16:33.921Z,97.8
2023-02-08T01:17:33.964Z,99.8
2023-02-08T01:18:33.994Z,99.9
2023-02-08T01:19:34.822Z,99.1
2023-02-08T01:20:34.219Z,97
2023-02-08T01:21:34.326Z,97.4
2023-02-08T01:22:33.584Z,97.3
2023-02-08T01:23:33.969Z,96.6
2023-02-08T01:24:34.255Z,95.7
2023-02-08T01:25:33.650Z,93.5
2023-02-08T01:26:34.453Z,91.3
2023-02-08T01:27:33.953Z,89.1
2023-02-08T01:28:36.119Z,88
2023-02-08T01:29:34.192Z,91.2
2023-02-08T01:30:33.874Z,92.1
2023-02-08T01:31:34.306Z,92.8
2023-02-08T01:32:34.186Z,94.3
2023-02-08T01:33:33.675Z,95.7
2023-02-08T01:34:34.270Z,97.5
2023-02-08T01:35:33.605Z,96.6
2023-02-08T01:36:35.031Z,95.2
2023-02-08T01:37:34.165Z,94.5
2023-02-08T01:38:34.125Z,94.6
2023-02-08T01:39:33.571Z,94.6
2023-02-08T01:40:34.268Z,94.5
2023-02-08T01:41:34.277Z,95.7
2023-02-08T01:42:34.348Z,96.3
2023-02-08T01:43:34.556Z,94.2
2023-02-08T01:44:34.060Z,94.8
2023-02-08T01:45:33.724Z,94.6
2023-02-08T01:46:35.086Z,95
2023-02-08T01:47:34.594Z,95.1
2023-02-08T01:48:34.097Z,96.9
2023-02-08T01:49:33.719Z,97.4
2023-02-08T01:50:32.378Z,98.6
2023-02-08T01:51:34.495Z,99.8
2023-02-08T01:52:34.138Z,100
2023-02-08T01:53:33.971Z,99.4
2023-02-08T01:54:33.570Z,99.7
2023-02-08T01:55:34.940Z,99.3
2023-02-08T01:56:34.293Z,98.7
2023-02-08T01:57:33.850Z,98.9
2023-02-08T01:58:34.246Z,98.7
2023-02-08T01:59:34.364Z,97.6
2023-02-08T02:00:33.878Z,96.7
2023-02-08T02:01:35.394Z,96.2
2023-02-08T02:02:34.387Z,97.3
2023-02-08T02:03:34.180Z,98
2023-02-08T02:04:34.227Z,96.7
2023-02-08T02:05:33.885Z,96.4
2023-02-08T02:06:34.196Z,97.3
2023-02-08T02:07:34.535Z,97.9
2023-02-08T02:08:34.624Z,95.7
2023-02-08T02:09:33.654Z,95
2023-02-08T02:10:34.429Z,94.8
2023-02-08T02:11:34.126Z,94.9
2023-02-08T02:12:34.661Z,94.1
2023-02-08T02:13:35.580Z,94.2
2023-02-08T02:14:33.722Z,93.6
2023-02-08T02:15:34.360Z,94.6
2023-02-08T02:16:33.788Z,94.8
2023-02-08T02:17:34.096Z,96.2
2023-02-08T02:18:33.865Z,96.9
2023-02-08T02:19:33.820Z,97.3
2023-02-08T02:20:37.063Z,95.9
2023-02-08T02:21:33.674Z,95.3
2023-02-08T02:22:33.654Z,95
2023-02-08T02:23:33.886Z,94.6
2023-02-08T02:24:34.821Z,95.6
2023-02-08T02:25:34.399Z,96.1
2023-02-08T02:26:33.819Z,96.2
2023-02-08T02:27:35.153Z,98.5
2023-02-08T02:28:34.127Z,97.5
2023-02-08T02:29:34.334Z,96.1
2023-02-08T02:30:34.150Z,95.3
2023-02-08T02:31:34.971Z,96.1
2023-02-08T02:32:33.696Z,95.5
2023-02-08T02:33:32.960Z,94
2023-02-08T02:34:33.870Z,94.1
2023-02-08T02:35:34.380Z,94.3
2023-02-08T02:36:34.694Z,95.5
2023-02-08T02:37:33.987Z,95.1
2023-02-08T02:38:34.193Z,92.8
2023-02-08T02:39:33.690Z,92.3
2023-02-08T02:40:33.812Z,93.2
2023-02-08T02:41:34.219Z,93.7
2023-02-08T02:42:34.019Z,94.8
2023-02-08T02:43:34.644Z,96
2023-02-08T02:44:34.120Z,95.3
2023-02-08T02:45:34.198Z,96.5
2023-02-08T02:46:34.063Z,94.8
2023-02-08T02:47:34.475Z,95.3
2023-02-08T02:48:34.674Z,96.8
2023-02-08T02:49:34.369Z,97.8
2023-02-08T02:50:34.481Z,98.8
2023-02-08T02:51:34.502Z,99.2
2023-02-08T02:52:34.678Z,98.8
2023-02-08T02:53:34.651Z,98.2
2023-02-08T02:54:33.684Z,97.4
2023-02-08T02:55:35.045Z,97.2
2023-02-08T02:56:32.963Z,97.3
2023-02-08T02:57:35.271Z,96
2023-02-08T02:58:32.412Z,96
2023-02-08T02:59:34.235Z,95.3
2023-02-08T03:00:33.629Z,95.7
2023-02-08T03:01:34.249Z,96.8
2023-02-08T03:02:34.480Z,96.6
2023-02-08T03:03:33.643Z,95.5
2023-02-08T03:04:34.609Z,96
2023-02-08T03:05:33.663Z,96.9
2023-02-08T03:06:34.507Z,96.2
2023-02-08T03:07:34.295Z,96
2023-02-08T03:08:34.279Z,94.7
2023-02-08T03:09:35.098Z,94.8
2023-02-08T03:10:33.822Z,96.1
2023-02-08T03:11:35.155Z,96
2023-02-08T03:12:34.813Z,94.7
2023-02-08T03:13:33.602Z,94.1
2023-02-08T03:14:33.586Z,94.1
2023-02-08T03:15:34.833Z,96
2023-02-08T03:16:33.697Z,96.7
2023-02-08T03:17:33.588Z,96.6
2023-02-08T03:18:33.741Z,98.1
2023-02-08T03:19:34.161Z,98.7
2023-02-08T03:20:33.572Z,99.8
2023-02-08T03:21:36.403Z,100
2023-02-08T03:22:34.893Z,99.6
2023-02-08T03:23:34.511Z,99.2
2023-02-08T03:24:33.850Z,97
2023-02-08T03:25:34.828Z,97.6
2023-02-08T03:26:34.200Z,98
2023-02-08T03:27:33.911Z,97.6
2023-02-08T03:28:33.572Z,97
2023-02-08T03:29:34.189Z,96.3
2023-02-08T03:30:34.120Z,96.7
2023-02-08T03:31:34.364Z,97.3
2023-02-08T03:32:34.344Z,96
2023-02-08T03:33:33.900Z,93.7
2023-02-08T03:34:33.943Z,95.6
2023-02-08T03:35:35.286Z,95.7
2023-02-08T03:36:34.208Z,95.7
2023-02-08T03:37:34.585Z,96.3
2023-02-08T03:38:34.491Z,95.1
2023-02-08T03:39:33.989Z,94.7
2023-02-08T03:40:33.676Z,93.7
2023-02-08T03:41:33.995Z,94.1
2023-02-08T03:42:32.766Z,96.2
2023-02-08T03:43:33.895Z,95.5
2023-02-08T03:44:34.116Z,95
2023-02-08T03:45:34.299Z,95.4
2023-02-08T03:46:33.622Z,96.4
2023-02-08T03:47:33.725Z,97.6
2023-02-08T03:48:33.739Z,97.5
2023-02-08T03:49:34.155Z,97.8
2023-02-08T03:50:34.156Z,99
2023-02-08T03:51:35.103Z,100
2023-02-08T03:52:34.287Z,98.7
2023-02-08T03:53:34.915Z,96.2
2023-02-08T03:54:33.676Z,97.1
2023-02-08T03:55:33.686Z,96.8
2023-02-08T03:56:33.745Z,98.1
2023-02-08T03:57:34.058Z,97.4
2023-02-08T03:58:34.412Z,98.9
2023-02-08T03:59:33.702Z,99.7
2023-02-08T04:00:33.585Z,99.9
2023-02-08T04:01:34.567Z,100
2023-02-08T04:02:34.144Z,99.3
2023-02-08T04:03:33.689Z,99
2023-02-08T04:04:33.562Z,97.7
2023-02-08T04:06:33.943Z,95.2
2023-02-08T04:07:34.060Z,97
2023-02-08T04:08:34.139Z,95.7
2023-02-08T04:09:33.765Z,94.8
2023-02-08T04:10:33.660Z,96.2
2023-02-08T04:11:33.620Z,95.9
2023-02-08T04:12:33.575Z,95.8
2023-02-08T04:13:33.612Z,95.7
2023-02-08T04:14:33.789Z,95.4
2023-02-08T04:15:34.136Z,96
2023-02-08T04:16:34.728Z,96.2
2023-02-08T04:17:34.531Z,97.1
2023-02-08T04:18:34.436Z,98.4
2023-02-08T04:19:33.773Z,100
2023-02-08T04:20:34.423Z,100
2023-02-08T04:21:34.420Z,100
2023-02-08T04:22:34.040Z,100
2023-02-08T04:23:33.884Z,100
2023-02-08T04:24:34.376Z,98.9
2023-02-08T04:25:33.866Z,98.5
2023-02-08T04:26:33.866Z,98.9
2023-02-08T04:27:32.385Z,99.9
2023-02-08T04:28:33.690Z,99
2023-02-08T04:29:33.559Z,97.6
2023-02-08T04:30:33.722Z,96.3
2023-02-08T04:31:34.422Z,97
2023-02-08T04:32:33.569Z,97.9
2023-02-08T04:33:34.342Z,96.2
2023-02-08T04:34:33.814Z,95.3
2023-02-08T04:35:34.669Z,94.3
2023-02-08T04:36:33.564Z,94.8
2023-02-08T04:37:34.985Z,97.1
2023-02-08T04:38:34.262Z,96.2
2023-02-08T04:39:33.652Z,96.9
2023-02-08T04:40:34.578Z,96.6
2023-02-08T04:41:34.194Z,97.1
2023-02-08T04:42:34.182Z,96.5
2023-02-08T04:43:34.901Z,94.9
2023-02-08T04:44:34.095Z,94.1
2023-02-08T04:45:33.582Z,93.8
2023-02-08T04:46:34.244Z,94.2
2023-02-08T04:47:33.591Z,94.8
2023-02-08T04:48:34.530Z,95.9
2023-02-08T04:49:32.893Z,97.4
2023-02-08T04:50:34.546Z,98
2023-02-08T04:51:34.892Z,98
2023-02-08T04:52:36.398Z,98.8
2023-02-08T04:53:33.651Z,96.4
2023-02-08T04:54:34.668Z,96.4
2023-02-08T04:55:34.596Z,95.4
2023-02-08T04:56:34.266Z,94.7
2023-02-08T04:57:33.852Z,94.5
2023-02-08T04:58:34.292Z,95.3
2023-02-08T04:59:34.504Z,96.1
2023-02-08T05:00:33.589Z,98
2023-02-08T05:01:35.072Z,96.4
2023-02-08T05:02:34.140Z,95.4
2023-02-08T05:03:33.598Z,95.7
2023-02-08T05:04:33.732Z,95.2
2023-02-08T05:05:34.860Z,95.7
2023-02-08T05:06:33.938Z,94.9
2023-02-08T05:07:34.246Z,95.7
2023-02-08T05:08:34.251Z,94.9
2023-02-08T05:09:34.321Z,93.6
2023-02-08T05:10:34.301Z,92.5
2023-02-08T05:11:33.256Z,90.9
2023-02-08T05:12:34.469Z,94
2023-02-08T05:13:33.976Z,92.4
2023-02-08T05:14:34.499Z,93.2
2023-02-08T05:15:34.388Z,93.2
2023-02-08T05:16:33.576Z,93.6
2023-02-08T05:17:33.581Z,92.8
2023-02-08T05:18:34.205Z,92.4
2023-02-08T05:19:33.719Z,90.5
2023-02-08T05:20:35.079Z,89.5
2023-02-08T05:21:34.326Z,89
2023-02-08T05:22:33.899Z,88.8
2023-02-08T05:23:33.552Z,90.1
2023-02-08T05:24:33.947Z,91.8
2023-02-08T05:25:34.462Z,92.4
2023-02-08T05:26:34.675Z,92.6
2023-02-08T05:27:33.583Z,94.3
2023-02-08T05:28:34.690Z,94.5
2023-02-08T05:29:34.196Z,95.5
2023-02-08T05:30:34.187Z,94.2
2023-02-08T05:31:33.726Z,93.7
2023-02-08T05:32:34.501Z,92.1
2023-02-08T05:33:34.397Z,91.5
2023-02-08T05:34:32.372Z,90.5
2023-02-08T05:35:35.425Z,90.5
2023-02-08T05:36:33.658Z,89
2023-02-08T05:37:34.147Z,89.6
2023-02-08T05:38:33.554Z,88.6
2023-02-08T05:39:34.197Z,88
2023-02-08T05:40:33.620Z,87.9
2023-02-08T05:41:34.233Z,86.4
2023-02-08T05:42:33.634Z,87.2
2023-02-08T05:43:33.762Z,86.6
2023-02-08T05:44:35.061Z,88.7
2023-02-08T05:45:33.750Z,89.1
2023-02-08T05:46:37.062Z,89.7
2023-02-08T05:47:34.413Z,89.1
2023-02-08T05:48:33.720Z,89.2
2023-02-08T05:49:33.954Z,88.2
2023-02-08T05:50:34.184Z,90
2023-02-08T05:51:33.689Z,89.2
2023-02-08T05:52:33.612Z,89.9
2023-02-08T05:53:34.015Z,90
2023-02-08T05:54:33.813Z,90
2023-02-08T05:55:34.550Z,89.4
2023-02-08T05:56:35.070Z,88.8
2023-02-08T05:57:35.746Z,90
2023-02-08T05:58:34.152Z,89.9
2023-02-08T05:59:33.913Z,90.6
2023-02-08T06:00:33.548Z,90.4
2023-02-08T06:01:34.718Z,88.9
2023-02-08T06:02:35.267Z,89.6
2023-02-08T06:03:33.894Z,90
2023-02-08T06:04:33.774Z,89.1
2023-02-08T06:05:33.736Z,88.4
2023-02-08T06:06:33.680Z,87.6
2023-02-08T06:07:33.998Z,88.9
2023-02-08T06:08:33.617Z,91.3
2023-02-08T06:09:33.908Z,92.1
2023-02-08T06:10:34.115Z,92.3
2023-02-08T06:11:34.224Z,93.2
2023-02-08T06:12:34.131Z,93.8
2023-02-08T06:13:33.533Z,93.2
2023-02-08T06:14:33.833Z,92.9
2023-02-08T06:15:34.665Z,91.8
2023-02-08T06:16:34.787Z,90.5
2023-02-08T06:17:33.874Z,91.2
2023-02-08T06:18:33.557Z,91.2
2023-02-08T06:19:34.174Z,91.4
2023-02-08T06:20:33.986Z,92.2
2023-02-08T06:21:34.398Z,93.3
2023-02-08T06:22:34.911Z,93.2
2023-02-08T06:23:34.099Z,95.1
2023-02-08T06:24:33.897Z,95
2023-02-08T06:25:33.805Z,95.4
2023-02-08T06:26:34.112Z,94.5
2023-02-08T06:27:34.230Z,93.2
2023-02-08T06:28:34.099Z,93.5
2023-02-08T06:29:34.052Z,93.9
2023-02-08T06:30:36.708Z,94.4
2023-02-08T06:31:34.623Z,95.7
2023-02-08T06:32:34.356Z,96.1
2023-02-08T06:33:34.264Z,95.7
2023-02-08T06:34:34.688Z,95.8
2023-02-08T06:35:34.107Z,96.8
2023-02-08T06:36:34.250Z,97.7
2023-02-08T06:37:33.595Z,99.8
2023-02-08T06:38:33.688Z,100
2023-02-08T06:39:34.123Z,100
2023-02-08T06:40:34.111Z,100
2023-02-08T06:41:32.928Z,99.6
2023-02-08T06:42:34.365Z,98.5
2023-02-08T06:43:34.168Z,98.9
2023-02-08T06:44:34.440Z,100
2023-02-08T06:45:34.316Z,100
2023-02-08T06:46:34.259Z,100
2023-02-08T06:47:33.967Z,99.3
2023-02-08T06:48:34.257Z,99.7
2023-02-08T06:49:33.760Z,98.9
2023-02-08T06:50:34.383Z,99.5
2023-02-08T06:51:33.877Z,99.5
2023-02-08T06:52:34.158Z,99.5
2023-02-08T06:53:34.894Z,100
2023-02-08T06:54:34.316Z,100
2023-02-08T06:55:33.581Z,100
2023-02-08T06:56:33.531Z,100
2023-02-08T06:57:34.124Z,100
2023-02-08T06:58:33.728Z,100
2023-02-08T06:59:34.030Z,100
2023-02-08T07:00:33.719Z,100
2023-02-08T07:01:34.156Z,100
2023-02-08T07:02:34.300Z,100
2023-02-08T07:03:33.971Z,100
2023-02-08T07:04:33.703Z,100
2023-02-08T07:05:34.084Z,100
2023-02-08T07:06:33.693Z,100
2023-02-08T07:07:34.406Z,100
2023-02-08T07:08:33.894Z,100
2023-02-08T07:09:33.953Z,100
2023-02-08T07:10:34.819Z,100
2023-02-08T07:11:33.597Z,100
2023-02-08T07:12:34.861Z,100
2023-02-08T07:13:33.915Z,100
2023-02-08T07:14:34.609Z,100
2023-02-08T07:15:34.101Z,100
2023-02-08T07:16:34.208Z,100
2023-02-08T07:17:34.861Z,100
2023-02-08T07:18:33.695Z,100
2023-02-08T07:19:34.464Z,100
2023-02-08T07:20:33.601Z,100
2023-02-08T07:21:34.583Z,99.9
2023-02-08T07:22:34.925Z,99
2023-02-08T07:23:33.608Z,98.3
2023-02-08T07:24:34.191Z,98.1
2023-02-08T07:25:33.906Z,97.6
2023-02-08T07:27:34.226Z,98
2023-02-08T07:28:34.728Z,96.1
2023-02-08T07:29:34.064Z,94.8
2023-02-08T07:30:34.003Z,94
2023-02-08T07:31:34.765Z,93.9
2023-02-08T07:32:34.890Z,93.5
2023-02-08T07:33:33.737Z,93.4
2023-02-08T07:34:33.553Z,93.8
2023-02-08T07:35:34.192Z,92.9
2023-02-08T07:36:35.928Z,92.2
2023-02-08T07:37:33.610Z,91.6
2023-02-08T07:38:34.282Z,91.4
2023-02-08T07:39:33.880Z,91.7
2023-02-08T07:40:34.120Z,92
2023-02-08T07:41:34.269Z,91.9
2023-02-08T07:42:34.503Z,90.4
2023-02-08T07:43:34.116Z,90.2
2023-02-08T07:44:33.654Z,88.9
2023-02-08T07:45:34.345Z,89.1
2023-02-08T07:46:34.038Z,89.3
2023-02-08T07:47:34.074Z,88.7
2023-02-08T07:48:32.562Z,89.3
2023-02-08T07:49:34.662Z,88.5
2023-02-08T07:50:34.206Z,88.4
2023-02-08T07:51:33.603Z,88.7
2023-02-08T07:52:34.784Z,88.1
2023-02-08T07:53:34.285Z,89.4
2023-02-08T07:54:34.316Z,87.8
2023-02-08T07:55:33.997Z,89
2023-02-08T07:56:33.869Z,89.1
2023-02-08T07:57:33.555Z,87.9
2023-02-08T07:58:34.330Z,88
2023-02-08T07:59:33.599Z,87.1
2023-02-08T08:00:33.650Z,86.5
2023-02-08T08:01:34.408Z,86.3
2023-02-08T08:02:34.036Z,87
2023-02-08T08:03:34.837Z,88.1
2023-02-08T08:04:34.043Z,88.4
2023-02-08T08:05:33.781Z,86.9
2023-02-08T08:06:34.054Z,85.6
2023-02-08T08:07:33.958Z,84.1
2023-02-08T08:08:34.684Z,84.2
2023-02-08T08:09:34.382Z,83.8
2023-02-08T08:10:32.877Z,84
2023-02-08T08:11:34.008Z,83.9
2023-02-08T08:12:33.716Z,84.2
2023-02-08T08:13:34.784Z,83.8
2023-02-08T08:14:34.320Z,85
2023-02-08T08:15:34.438Z,83.9
2023-02-08T08:16:33.957Z,83.1
2023-02-08T08:17:34.754Z,82.5
2023-02-08T08:18:34.386Z,81.5
2023-02-08T08:19:34.047Z,81.4
2023-02-08T08:20:35.063Z,81.6
2023-02-08T08:21:34.369Z,81.2
2023-02-08T08:22:33.661Z,80.5
2023-02-08T08:23:34.575Z,80.3
2023-02-08T08:24:34.377Z,80.6
2023-02-08T08:25:33.992Z,79.2
2023-02-08T08:26:34.276Z,78.1
2023-02-08T08:27:34.400Z,76.7
2023-02-08T08:28:34.632Z,77.2
2023-02-08T08:29:33.890Z,76.4
2023-02-08T08:30:33.649Z,74.5
2023-02-08T08:31:34.048Z,75.7
2023-02-08T08:32:33.613Z,75.5
2023-02-08T08:34:34.204Z,74.3
2023-02-08T08:35:34.154Z,73.5
2023-02-08T08:36:34.262Z,72.8
2023-02-08T08:37:35.386Z,72.9
2023-02-08T08:38:34.080Z,71
2023-02-08T08:39:33.854Z,72.5
2023-02-08T08:40:33.872Z,73.4
2023-02-08T08:41:33.545Z,71
2023-02-08T08:42:33.861Z,71.9
2023-02-08T08:43:34.342Z,72.3
2023-02-08T08:44:34.405Z,72.3
2023-02-08T08:45:34.612Z,72.9
2023-02-08T08:46:34.965Z,73.1
2023-02-08T08:47:33.965Z,74.6
2023-02-08T08:48:33.721Z,76.4
2023-02-08T08:49:34.224Z,75.3
2023-02-08T08:50:33.596Z,75.5
2023-02-08T08:51:34.192Z,75.7
2023-02-08T08:52:34.145Z,75.2
2023-02-08T08:53:34.046Z,74.8
2023-02-08T08:54:34.476Z,72.2
2023-02-08T08:55:34.227Z,72
2023-02-08T08:56:33.247Z,72
2023-02-08T08:57:34.174Z,71.9
2023-02-08T08:58:34.189Z,72.2
2023-02-08T08:59:34.403Z,71.5
2023-02-08T09:00:33.578Z,72.6
2023-02-08T09:01:34.815Z,72.1
2023-02-08T09:02:34.219Z,71.3
2023-02-08T09:03:33.774Z,70.5
2023-02-08T09:04:33.812Z,70
2023-02-08T09:05:33.571Z,69.5
2023-02-08T09:06:34.017Z,69.6
2023-02-08T09:07:34.056Z,69
2023-02-08T09:08:33.637Z,68.4
2023-02-08T09:09:34.569Z,68.7
2023-02-08T09:10:34.673Z,67.7
2023-02-08T09:11:34.373Z,68.9
2023-02-08T09:12:34.577Z,66.5
2023-02-08T09:13:34.077Z,67.6
2023-02-08T09:14:34.342Z,67.8
2023-02-08T09:15:34.403Z,66.9
2023-02-08T09:16:34.372Z,65.8
2023-02-08T09:17:33.523Z,66.9
2023-02-08T09:18:33.478Z,68.2
2023-02-08T09:19:34.532Z,68
2023-02-08T09:20:33.811Z,67.1
2023-02-08T09:21:34.026Z,68
2023-02-08T09:22:34.238Z,67.4
2023-02-08T09:23:33.944Z,66.6
2023-02-08T09:24:33.630Z,66.1
2023-02-08T09:25:34.356Z,68.1
2023-02-08T09:26:33.650Z,66
2023-02-08T09:27:34.170Z,68
2023-02-08T09:28:33.772Z,66
2023-02-08T09:29:33.766Z,64.8
2023-02-08T09:30:33.565Z,63.9
2023-02-08T09:31:33.966Z,63.7
2023-02-08T09:32:34.724Z,62.4
2023-02-08T09:33:33.788Z,63.1
2023-02-08T09:34:34.045Z,61.2
2023-02-08T09:35:34.093Z,61.2
2023-02-08T09:36:33.560Z,62.1
2023-02-08T09:37:33.812Z,62.6
2023-02-08T09:38:34.845Z,61
2023-02-08T09:39:34.043Z,62.1
2023-02-08T09:40:32.600Z,62.3
2023-02-08T09:41:33.638Z,61.7
2023-02-08T09:42:33.520Z,60.5
2023-02-08T09:43:34.335Z,60.4
2023-02-08T09:44:33.949Z,60.1
2023-02-08T09:45:33.545Z,58.8
2023-02-08T09:46:34.112Z,58.4
2023-02-08T09:47:35.074Z,58.7
2023-02-08T09:48:34.116Z,58.1
2023-02-08T09:49:34.738Z,58.2
2023-02-08T09:50:33.553Z,58.5
2023-02-08T09:51:34.062Z,58.2
2023-02-08T09:52:34.238Z,58.1
2023-02-08T09:53:34.892Z,57.7
2023-02-08T09:54:34.093Z,58.9
2023-02-08T09:55:34.052Z,58.5
2023-02-08T09:56:34.716Z,56.8
2023-02-08T09:57:33.681Z,57.6
2023-02-08T09:58:34.106Z,55.8
2023-02-08T09:59:34.214Z,56.7
2023-02-08T10:00:34.211Z,57.1
2023-02-08T10:01:33.531Z,56.4
2023-02-08T10:02:33.078Z,55
2023-02-08T10:03:34.099Z,55.1
2023-02-08T10:04:33.716Z,55.9
2023-02-08T10:05:33.950Z,55
2023-02-08T10:06:34.430Z,55.9
2023-02-08T10:07:34.617Z,57.7
2023-02-08T10:08:35.537Z,55.3
2023-02-08T10:09:34.228Z,55.8
2023-02-08T10:10:33.830Z,55.9
2023-02-08T10:11:34.088Z,55.4
2023-02-08T10:12:34.360Z,54.5
2023-02-08T10:13:41.433Z,55.6
2023-02-08T10:14:34.036Z,56.7
2023-02-08T10:15:33.527Z,55.8
2023-02-08T10:16:34.276Z,55.2
2023-02-08T10:17:33.684Z,54.8
2023-02-08T10:18:34.237Z,53.4
2023-02-08T10:19:34.503Z,53.8
2023-02-08T10:20:33.853Z,54.5
2023-02-08T10:21:33.862Z,54.7
2023-02-08T10:22:34.488Z,53.6
2023-02-08T10:23:34.269Z,53.8
2023-02-08T10:24:32.920Z,53.7
2023-02-08T10:25:34.437Z,52.9
2023-02-08T10:26:33.551Z,51.3
2023-02-08T10:27:34.033Z,52.4
2023-02-08T10:28:33.804Z,51.6
2023-02-08T10:29:34.352Z,52.1
2023-02-08T10:30:33.942Z,51.3
2023-02-08T10:31:34.293Z,53.5
2023-02-08T10:32:34.377Z,50.1
2023-02-08T10:33:35.317Z,50.9
2023-02-08T10:34:34.082Z,50.8
2023-02-08T10:35:34.955Z,50.9
2023-02-08T10:36:33.582Z,50.8
2023-02-08T10:37:33.791Z,51.7
2023-02-08T10:38:45.750Z,50.5
2023-02-08T10:39:35.668Z,48.8
2023-02-08T10:40:34.031Z,49.1
2023-02-08T10:41:35.357Z,47.7
2023-02-08T10:42:33.852Z,49.4
2023-02-08T10:43:34.179Z,49.6
2023-02-08T10:44:34.253Z,48.2
2023-02-08T10:45:33.794Z,48.6
2023-02-08T10:46:33.019Z,50.9
2023-02-08T10:47:33.895Z,49.3
2023-02-08T10:48:33.553Z,48.4
2023-02-08T10:49:34.117Z,49.3
2023-02-08T10:50:33.711Z,48.4
2023-02-08T10:51:34.096Z,47.7
2023-02-08T10:52:33.592Z,47.6
2023-02-08T10:53:33.904Z,47.6
2023-02-08T10:54:34.752Z,46.8
2023-02-08T10:55:36.170Z,46.9
2023-02-08T10:56:34.644Z,46.9
2023-02-08T10:57:34.135Z,49.7
2023-02-08T10:58:34.157Z,48.2
2023-02-08T10:59:34.358Z,47.3
2023-02-08T11:00:33.644Z,45.6
2023-02-08T11:01:34.350Z,46.8
2023-02-08T11:02:33.741Z,46.9
2023-02-08T11:03:33.538Z,48.4
2023-02-08T11:04:33.687Z,47.1
2023-02-08T11:05:34.172Z,47.5
2023-02-08T11:06:34.213Z,46.2
2023-02-08T11:07:36.720Z,45
2023-02-08T11:08:33.584Z,46.4
2023-02-08T11:09:33.204Z,45.5
2023-02-08T11:10:34.028Z,45.8
2023-02-08T11:11:33.829Z,46
2023-02-08T11:12:33.922Z,47.3
2023-02-08T11:13:36.465Z,45.1
2023-02-08T11:14:46.241Z,46.2
2023-02-08T11:15:33.603Z,46.9
2023-02-08T11:16:34.802Z,45
2023-02-08T11:17:33.666Z,45.3
2023-02-08T11:18:34.213Z,45.3
2023-02-08T11:19:35.493Z,46.1
2023-02-08T11:20:33.604Z,45.8
2023-02-08T11:21:34.250Z,45.4
2023-02-08T11:22:34.416Z,46.2
2023-02-08T11:23:33.740Z,45.9
2023-02-08T11:24:33.681Z,47.2
2023-02-08T11:25:35.799Z,46.2
2023-02-08T11:26:34.329Z,46
2023-02-08T11:27:33.887Z,45.4
2023-02-08T11:28:33.870Z,45.6
2023-02-08T11:29:34.229Z,44.3
2023-02-08T11:30:34.132Z,45.6
2023-02-08T11:31:33.595Z,43.9
2023-02-08T11:32:33.586Z,43.3
2023-02-08T11:33:33.971Z,45.9
2023-02-08T11:34:34.551Z,43.4
2023-02-08T11:35:33.516Z,44.4
2023-02-08T11:36:33.980Z,45.3
2023-02-08T11:37:34.484Z,44
2023-02-08T11:38:35.121Z,44.4
2023-02-08T11:39:34.810Z,43
2023-02-08T11:40:34.154Z,42.7
2023-02-08T11:41:36.450Z,42.5
2023-02-08T11:42:34.543Z,40.1
2023-02-08T11:43:34.443Z,39
2023-02-08T11:44:34.894Z,39.2
2023-02-08T11:45:33.979Z,39.4
2023-02-08T11:46:34.218Z,38.3
2023-02-08T11:47:34.156Z,37.2
2023-02-08T11:48:34.197Z,36.8
2023-02-08T11:49:33.669Z,38.2
2023-02-08T11:50:34.672Z,36.8
2023-02-08T11:51:34.277Z,35.6
2023-02-08T11:52:34.041Z,34.9
2023-02-08T11:53:35.305Z,36.7
2023-02-08T11:55:34.197Z,35.4
2023-02-08T11:56:33.997Z,34.1
2023-02-08T11:57:34.016Z,35
2023-02-08T11:58:33.712Z,35
2023-02-08T11:59:34.358Z,34.6
2023-02-08T12:00:35.082Z,33.5
2023-02-08T12:01:34.023Z,34.7
2023-02-08T12:02:34.990Z,34.6
2023-02-08T12:03:34.780Z,33.2
2023-02-08T12:04:34.463Z,33.5
2023-02-08T12:05:33.958Z,35.5
2023-02-08T12:06:33.656Z,35.1
2023-02-08T12:07:33.662Z,33.2
2023-02-08T12:08:33.981Z,33.6
2023-02-08T12:09:33.582Z,33.8
2023-02-08T12:10:34.806Z,32.2
2023-02-08T12:11:33.557Z,32.6
2023-02-08T12:12:33.859Z,32.1
2023-02-08T12:13:33.821Z,34.3
2023-02-08T12:14:34.280Z,31.7
2023-02-08T12:15:33.577Z,31.9
2023-02-08T12:16:32.920Z,31.7
2023-02-08T12:17:33.602Z,32.5
2023-02-08T12:18:33.967Z,33.3
2023-02-08T12:19:34.095Z,31.2
2023-02-08T12:20:34.659Z,31.3
2023-02-08T12:21:33.970Z,31.6
2023-02-08T12:22:34.880Z,30.5
2023-02-08T12:23:34.392Z,31.5
2023-02-08T12:24:33.840Z,31.7
2023-02-08T12:25:33.794Z,32
2023-02-08T12:26:34.929Z,31.5
2023-02-08T12:27:34.296Z,29.4
2023-02-08T12:28:34.418Z,30.7
2023-02-08T12:29:46.852Z,30.7
2023-02-08T12:30:34.177Z,31.6
2023-02-08T12:31:33.567Z,29.1
2023-02-08T12:32:34.841Z,30.3
2023-02-08T12:33:34.097Z,29.6
2023-02-08T12:34:34.143Z,31.6
2023-02-08T12:35:43.557Z,29.7
2023-02-08T12:36:34.835Z,29.2
2023-02-08T12:37:33.694Z,28.8
2023-02-08T12:38:33.659Z,28.9
2023-02-08T12:39:33.537Z,30
2023-02-08T12:40:35.011Z,27.1
2023-02-08T12:41:34.168Z,29
2023-02-08T12:42:33.598Z,28.5
2023-02-08T12:43:33.878Z,28.2
2023-02-08T12:44:34.088Z,26.6
2023-02-08T12:45:34.191Z,27.8
2023-02-08T12:46:34.047Z,27.7
2023-02-08T12:47:34.222Z,27
2023-02-08T12:48:33.990Z,27.7
2023-02-08T12:49:34.170Z,27.7
2023-02-08T12:50:33.687Z,26.7
2023-02-08T12:51:33.535Z,26.9
2023-02-08T12:52:34.717Z,26.9
2023-02-08T12:53:34.501Z,26.5
2023-02-08T12:54:33.743Z,25.6
2023-02-08T12:55:34.287Z,25.8
2023-02-08T12:56:34.585Z,25.9
2023-02-08T12:57:33.617Z,26.1
2023-02-08T12:58:33.876Z,26.1
2023-02-08T12:59:33.375Z,27.4
2023-02-08T13:00:34.105Z,27.1
2023-02-08T13:02:33.666Z,26.6
2023-02-08T13:03:34.036Z,25.9
2023-02-08T13:04:34.267Z,25.4
2023-02-08T13:05:34.087Z,24.3
2023-02-08T13:06:34.059Z,26.3
2023-02-08T13:07:34.365Z,25.2
2023-02-08T13:08:34.181Z,25.9
2023-02-08T13:09:35.548Z,25
2023-02-08T13:10:34.301Z,24.6
2023-02-08T13:11:33.988Z,24.1
2023-02-08T13:12:34.106Z,27.3
2023-02-08T13:13:33.556Z,26.2
2023-02-08T13:14:33.869Z,24.3
2023-02-08T13:15:34.395Z,26.2
2023-02-08T13:16:34.774Z,25.8
2023-02-08T13:17:33.528Z,25.2
2023-02-08T13:18:33.569Z,23.7
2023-02-08T13:19:34.086Z,24.1
2023-02-08T13:20:34.898Z,24
2023-02-08T13:21:33.508Z,24.3
2023-02-08T13:22:33.947Z,23.6
2023-02-08T13:23:38.493Z,23.9
2023-02-08T13:24:33.973Z,25.3
2023-02-08T13:25:34.458Z,23.9
2023-02-08T13:26:34.357Z,24.6
2023-02-08T13:27:33.662Z,23.6
2023-02-08T13:28:34.318Z,24.3
2023-02-08T13:29:33.815Z,22.3
2023-02-08T13:30:35.131Z,24.8
2023-02-08T13:31:34.746Z,24